createdAt,value
2019-03-15T00:01:36.170Z,74.81
2019-03-15T00:04:40.919Z,74.74
2019-03-15T00:07:45.647Z,74.49
2019-03-15T00:10:50.091Z,75.06
2019-03-15T00:13:54.803Z,75.59
2019-03-15T00:16:59.243Z,75.99
2019-03-15T00:20:05.139Z,76.12
2019-03-15T00:23:10.032Z,75.22
2019-03-15T00:26:14.753Z,74.97
2019-03-15T00:29:19.184Z,75.13
2019-03-15T00:32:23.911Z,75.25
2019-03-15T00:35:28.337Z,75.09
2019-03-15T00:38:32.770Z,74.89
2019-03-15T00:41:37.206Z,75.07
2019-03-15T00:44:41.631Z,74.73
2019-03-15T00:47:46.139Z,74.93
2019-03-15T00:50:50.583Z,75.66
2019-03-15T00:53:55.459Z,75.35
2019-03-15T00:57:00.217Z,74.84
2019-03-15T01:00:12.001Z,75.19
2019-03-15T01:03:16.851Z,75.37
2019-03-15T01:06:21.287Z,75.26
2019-03-15T01:09:25.727Z,76.07
2019-03-15T01:12:30.153Z,76.14
2019-03-15T01:15:34.853Z,75.93
2019-03-15T01:18:39.311Z,76.13
2019-03-15T01:21:43.756Z,75.79
2019-03-15T01:24:48.172Z,76.35
2019-03-15T01:27:52.847Z,76.74
2019-03-15T01:30:57.587Z,76.61
2019-03-15T01:34:02.031Z,76.68
2019-03-15T01:37:06.473Z,75.64
2019-03-15T01:40:10.903Z,75.11
2019-03-15T01:43:15.575Z,74.55
2019-03-15T01:46:19.999Z,74.56
2019-03-15T01:49:24.437Z,74.65
2019-03-15T01:52:28.874Z,74.62
2019-03-15T01:55:33.322Z,74.42
2019-03-15T01:58:38.003Z,74.32
2019-03-15T02:01:42.742Z,74.86
2019-03-15T02:04:47.465Z,74.80
2019-03-15T02:07:52.204Z,74.71
2019-03-15T02:10:56.633Z,74.19
2019-03-15T02:14:01.701Z,74.59
2019-03-15T02:17:06.495Z,74.01
2019-03-15T02:20:11.429Z,74.61
2019-03-15T02:23:16.157Z,74.59
2019-03-15T02:26:20.894Z,73.95
2019-03-15T02:29:25.325Z,72.93
2019-03-15T02:32:29.764Z,73.32
2019-03-15T02:35:34.469Z,73.42
2019-03-15T02:38:39.198Z,72.07
2019-03-15T02:41:43.931Z,72.57
2019-03-15T02:44:48.375Z,72.93
2019-03-15T02:47:52.806Z,72.33
2019-03-15T02:50:57.510Z,72.66
2019-03-15T02:54:01.947Z,73.28
2019-03-15T02:57:06.374Z,72.32
2019-03-15T03:00:11.501Z,72.66
2019-03-15T03:03:15.941Z,72.59
2019-03-15T03:06:20.651Z,72.58
2019-03-15T03:09:25.087Z,72.63
2019-03-15T03:12:29.525Z,73.90
2019-03-15T03:15:34.255Z,76.09
2019-03-15T03:18:38.660Z,77.54
2019-03-15T03:21:43.081Z,78.18
2019-03-15T03:24:47.808Z,79.00
2019-03-15T03:27:52.538Z,78.34
2019-03-15T03:30:57.306Z,79.80
2019-03-15T03:34:02.115Z,80.46
2019-03-15T03:37:06.532Z,81.36
2019-03-15T03:40:11.358Z,81.83
2019-03-15T03:43:16.093Z,81.37
2019-03-15T03:46:20.820Z,82.22
2019-03-15T03:49:25.255Z,81.60
2019-03-15T03:52:29.975Z,81.18
2019-03-15T03:55:34.408Z,80.44
2019-03-15T03:58:39.948Z,81.08
2019-03-15T04:01:44.387Z,81.02
2019-03-15T04:04:48.997Z,81.38
2019-03-15T04:07:53.726Z,80.79
2019-03-15T04:10:58.157Z,80.95
2019-03-15T04:14:02.885Z,81.58
2019-03-15T04:17:07.314Z,81.74
2019-03-15T04:20:13.094Z,82.11
2019-03-15T04:23:17.516Z,82.21
2019-03-15T04:26:22.213Z,82.23
2019-03-15T04:29:26.646Z,82.12
2019-03-15T04:32:31.070Z,82.78
2019-03-15T04:35:35.504Z,82.48
2019-03-15T04:38:40.219Z,82.96
2019-03-15T04:41:45.010Z,83.08
2019-03-15T04:44:49.471Z,82.78
2019-03-15T04:47:53.895Z,83.67
2019-03-15T04:50:58.625Z,83.54
2019-03-15T04:54:05.508Z,83.97
2019-03-15T04:57:09.214Z,84.55
2019-03-15T05:00:15.078Z,84.56
2019-03-15T05:03:19.804Z,84.45
2019-03-15T05:06:24.239Z,83.65
2019-03-15T05:09:28.673Z,83.78
2019-03-15T05:12:33.382Z,83.26
2019-03-15T05:15:37.877Z,83.56
2019-03-15T05:18:42.641Z,83.90
2019-03-15T05:21:47.366Z,84.15
2019-03-15T05:24:51.802Z,84.12
2019-03-15T05:27:56.521Z,84.06
2019-03-15T05:31:01.258Z,83.89
2019-03-15T05:34:06.088Z,83.37
2019-03-15T05:37:10.817Z,83.21
2019-03-15T05:40:15.251Z,83.22
2019-03-15T05:43:19.683Z,83.63
2019-03-15T05:46:24.400Z,83.35
2019-03-15T05:49:28.834Z,83.24
2019-03-15T05:52:33.266Z,83.79
2019-03-15T05:55:37.704Z,83.66
2019-03-15T05:58:42.395Z,83.99
2019-03-15T06:01:47.134Z,84.25
2019-03-15T06:04:51.559Z,84.54
2019-03-15T06:07:55.993Z,85.23
2019-03-15T06:11:00.443Z,85.48
2019-03-15T06:14:04.881Z,85.54
2019-03-15T06:17:09.655Z,85.62
2019-03-15T06:20:14.859Z,84.69
2019-03-15T06:23:19.631Z,83.47
2019-03-15T06:26:24.363Z,83.79
2019-03-15T06:29:29.093Z,84.13
2019-03-15T06:32:33.818Z,84.79
2019-03-15T06:35:38.258Z,84.38
2019-03-15T06:38:43.003Z,84.04
2019-03-15T06:41:47.418Z,83.97
2019-03-15T06:44:58.014Z,84.04
2019-03-15T06:47:58.296Z,83.58
2019-03-15T06:51:02.732Z,84.05
2019-03-15T06:54:11.613Z,83.41
2019-03-15T06:57:13.922Z,83.22
2019-03-15T07:00:18.347Z,82.97
2019-03-15T07:03:22.778Z,82.45
2019-03-15T07:06:27.494Z,82.49
2019-03-15T07:09:32.229Z,82.40
2019-03-15T07:12:40.360Z,82.17
2019-03-15T07:15:45.369Z,80.97
2019-03-15T07:18:50.106Z,80.43
2019-03-15T07:21:54.851Z,79.61
2019-03-15T07:24:59.572Z,80.52
2019-03-15T07:28:05.090Z,80.25
2019-03-15T07:31:09.851Z,80.14
2019-03-15T07:34:17.571Z,78.97
2019-03-15T07:37:21.599Z,79.63
2019-03-15T07:40:26.159Z,79.49
2019-03-15T07:43:30.601Z,79.99
2019-03-15T07:46:35.042Z,79.65
2019-03-15T07:49:39.772Z,80.28
2019-03-15T07:52:44.265Z,80.27
2019-03-15T07:55:48.694Z,80.05
2019-03-15T07:58:53.454Z,80.61
2019-03-15T08:01:58.186Z,80.47
2019-03-15T08:05:02.613Z,80.50
2019-03-15T08:08:07.344Z,80.22
2019-03-15T08:11:12.067Z,80.04
2019-03-15T08:14:16.508Z,80.90
2019-03-15T08:17:20.944Z,81.30
2019-03-15T08:20:25.642Z,81.24
2019-03-15T08:23:30.081Z,80.40
2019-03-15T08:26:34.583Z,80.29
2019-03-15T08:29:39.325Z,80.18
2019-03-15T08:32:44.289Z,80.32
2019-03-15T08:35:48.868Z,81.15
2019-03-15T08:38:53.619Z,81.40
2019-03-15T08:41:58.052Z,81.61
2019-03-15T08:45:02.779Z,81.05
2019-03-15T08:48:07.516Z,81.78
2019-03-15T08:51:11.940Z,81.98
2019-03-15T08:54:16.668Z,81.73
2019-03-15T08:57:21.178Z,82.22
2019-03-15T09:00:25.924Z,81.93
2019-03-15T09:03:30.367Z,81.61
2019-03-15T09:06:34.798Z,82.40
2019-03-15T09:09:39.232Z,82.30
2019-03-15T09:12:43.662Z,81.23
2019-03-15T09:15:48.101Z,82.64
2019-03-15T09:18:55.328Z,81.68
2019-03-15T09:22:00.541Z,82.12
2019-03-15T09:25:18.704Z,82.70
2019-03-15T09:28:14.326Z,82.81
2019-03-15T09:31:18.755Z,83.71
2019-03-15T09:34:23.190Z,83.63
2019-03-15T09:37:27.619Z,83.42
2019-03-15T09:40:32.061Z,83.45
2019-03-15T09:43:36.767Z,82.95
2019-03-15T09:46:41.181Z,82.55
2019-03-15T09:49:45.912Z,82.14
2019-03-15T09:52:50.369Z,82.41
2019-03-15T09:55:55.061Z,82.56
2019-03-15T09:58:59.504Z,82.70
2019-03-15T10:02:03.940Z,83.12
2019-03-15T10:05:11.530Z,82.71
2019-03-15T10:08:15.916Z,82.60
2019-03-15T10:11:20.662Z,82.83
2019-03-15T10:14:25.101Z,83.48
2019-03-15T10:17:29.546Z,84.19
2019-03-15T10:20:34.251Z,84.49
2019-03-15T10:23:38.681Z,83.98
2019-03-15T10:26:43.116Z,84.03
2019-03-15T10:29:47.820Z,84.01
2019-03-15T10:32:52.255Z,84.39
2019-03-15T10:35:56.686Z,84.95
2019-03-15T10:39:01.114Z,85.42
2019-03-15T10:42:05.857Z,85.39
2019-03-15T10:45:11.374Z,85.25
2019-03-15T10:48:25.313Z,85.46
2019-03-15T10:51:21.978Z,86.24
2019-03-15T10:54:26.412Z,85.12
2019-03-15T10:57:30.845Z,84.07
2019-03-15T11:00:35.535Z,83.85
2019-03-15T11:03:39.972Z,83.69
2019-03-15T11:06:44.703Z,82.94
2019-03-15T11:09:49.147Z,82.22
2019-03-15T11:12:53.851Z,82.12
2019-03-15T11:15:58.297Z,82.22
2019-03-15T11:19:03.001Z,82.57
2019-03-15T11:22:07.442Z,81.69
2019-03-15T11:25:12.983Z,82.33
2019-03-15T11:28:17.711Z,82.24
2019-03-15T11:31:22.163Z,82.28
2019-03-15T11:34:26.612Z,81.98
2019-03-15T11:37:31.052Z,79.70
2019-03-15T11:40:37.881Z,79.89
2019-03-15T11:43:41.973Z,79.65
2019-03-15T11:46:46.538Z,80.56
2019-03-15T11:49:50.969Z,80.30
2019-03-15T11:52:55.408Z,80.38
2019-03-15T11:55:59.850Z,80.00
2019-03-15T11:59:04.361Z,78.84
2019-03-15T12:02:10.730Z,79.07
2019-03-15T12:05:16.214Z,78.99
2019-03-15T12:08:20.669Z,78.34
2019-03-15T12:11:25.369Z,78.08
2019-03-15T12:14:40.503Z,77.64
2019-03-15T12:17:36.568Z,77.61
2019-03-15T12:20:41.014Z,77.72
2019-03-15T12:23:45.450Z,77.59
2019-03-15T12:26:50.152Z,77.74
2019-03-15T12:29:54.886Z,78.17
2019-03-15T12:32:59.319Z,77.82
2019-03-15T12:36:03.798Z,78.37
2019-03-15T12:39:08.192Z,78.04
2019-03-15T12:42:12.981Z,77.23
2019-03-15T12:45:17.599Z,77.33
2019-03-15T12:48:22.343Z,77.07
2019-03-15T12:51:31.987Z,77.38
2019-03-15T12:54:32.943Z,77.07
2019-03-15T12:57:37.390Z,76.80
2019-03-15T13:00:41.831Z,76.68
2019-03-15T13:03:46.612Z,77.30
2019-03-15T13:06:51.347Z,77.06
2019-03-15T13:09:56.066Z,76.31
2019-03-15T13:13:00.512Z,76.64
2019-03-15T13:16:04.950Z,76.03
2019-03-15T13:19:09.392Z,76.14
2019-03-15T13:22:13.840Z,76.22
2019-03-15T13:25:18.291Z,75.49
2019-03-15T13:28:22.719Z,75.76
2019-03-15T13:31:27.456Z,76.19
2019-03-15T13:34:31.887Z,75.63
2019-03-15T13:37:36.359Z,76.07
2019-03-15T13:40:41.123Z,75.95
2019-03-15T13:43:45.859Z,75.95
2019-03-15T13:46:50.300Z,75.53
2019-03-15T13:49:55.152Z,75.42
2019-03-15T13:52:59.566Z,74.73
2019-03-15T13:56:04.006Z,74.90
2019-03-15T13:59:08.442Z,75.16
2019-03-15T14:02:13.219Z,74.52
2019-03-15T14:05:17.656Z,74.22
2019-03-15T14:08:22.106Z,74.54
2019-03-15T14:11:26.547Z,74.21
2019-03-15T14:14:31.326Z,73.62
2019-03-15T14:17:36.053Z,73.72
2019-03-15T14:20:40.791Z,72.99
2019-03-15T14:23:45.514Z,73.64
2019-03-15T14:26:51.139Z,73.58
2019-03-15T14:29:55.668Z,72.89
2019-03-15T14:33:00.182Z,73.58
2019-03-15T14:36:04.644Z,74.14
2019-03-15T14:39:09.311Z,74.02
2019-03-15T14:42:13.904Z,73.81
2019-03-15T14:45:18.599Z,73.40
2019-03-15T14:48:23.133Z,73.72
2019-03-15T14:51:27.582Z,73.50
2019-03-15T14:54:32.012Z,73.69
2019-03-15T14:57:36.475Z,73.84
2019-03-15T15:00:42.899Z,73.61
2019-03-15T15:03:47.631Z,73.62
2019-03-15T15:06:52.085Z,74.10
2019-03-15T15:09:56.524Z,73.99
2019-03-15T15:13:00.968Z,73.36
2019-03-15T15:16:05.407Z,74.17
2019-03-15T15:19:09.861Z,73.82
2019-03-15T15:22:14.305Z,73.63
2019-03-15T15:25:19.516Z,73.86
2019-03-15T15:28:24.245Z,73.63
2019-03-15T15:31:28.975Z,73.25
2019-03-15T15:34:33.703Z,73.07
2019-03-15T15:37:38.444Z,73.07
2019-03-15T15:40:42.871Z,72.65
2019-03-15T15:43:47.317Z,73.01
2019-03-15T15:46:52.015Z,72.90
2019-03-15T15:49:56.449Z,72.11
2019-03-15T15:53:01.173Z,72.31
2019-03-15T15:56:05.900Z,72.66
2019-03-15T15:59:10.631Z,72.65
2019-03-15T16:02:15.148Z,72.46
2019-03-15T16:05:19.888Z,72.66
2019-03-15T16:08:24.332Z,72.86
2019-03-15T16:11:28.781Z,72.87
2019-03-15T16:14:33.478Z,72.55
2019-03-15T16:17:37.923Z,72.53
2019-03-15T16:20:42.618Z,72.42
2019-03-15T16:23:47.062Z,72.88
2019-03-15T16:26:51.869Z,72.99
2019-03-15T16:29:56.606Z,72.13
2019-03-15T16:33:01.056Z,72.74
2019-03-15T16:36:05.755Z,72.80
2019-03-15T16:39:10.211Z,73.19
2019-03-15T16:42:14.649Z,73.42
2019-03-15T16:45:28.158Z,73.33
2019-03-15T16:48:32.608Z,73.32
2019-03-15T16:51:37.034Z,72.93
2019-03-15T16:54:41.726Z,72.97
2019-03-15T16:57:46.182Z,73.31
2019-03-15T17:00:50.614Z,73.30
2019-03-15T17:03:55.061Z,73.63
2019-03-15T17:07:00.804Z,74.14
2019-03-15T17:10:18.181Z,73.77
2019-03-15T17:13:22.626Z,73.42
2019-03-15T17:16:27.333Z,73.63
2019-03-15T17:19:31.772Z,73.41
2019-03-15T17:22:36.491Z,73.42
2019-03-15T17:25:40.931Z,73.30
2019-03-15T17:28:57.970Z,73.07
2019-03-15T17:31:51.530Z,72.93
2019-03-15T17:34:55.977Z,73.03
2019-03-15T17:38:00.435Z,72.64
2019-03-15T17:41:04.853Z,72.61
2019-03-15T17:44:09.598Z,72.72
2019-03-15T17:47:14.026Z,72.55
2019-03-15T17:50:23.763Z,72.89
2019-03-15T17:53:28.172Z,72.92
2019-03-15T17:56:32.678Z,72.73
2019-03-15T17:59:37.454Z,72.59
2019-03-15T18:02:41.911Z,72.95
2019-03-15T18:05:46.407Z,73.55
2019-03-15T18:08:50.852Z,73.03
2019-03-15T18:11:55.555Z,73.01
2019-03-15T18:15:00.165Z,72.94
2019-03-15T18:18:04.973Z,72.68
2019-03-15T18:21:09.408Z,72.85
2019-03-15T18:24:14.173Z,72.78
2019-03-15T18:27:18.899Z,72.46
2019-03-15T18:30:23.380Z,72.79
2019-03-15T18:33:27.818Z,72.58
2019-03-15T18:36:32.252Z,72.59
2019-03-15T18:39:36.722Z,72.25
2019-03-15T18:42:41.428Z,72.01
2019-03-15T18:45:45.952Z,71.89
2019-03-15T18:48:50.889Z,71.96
2019-03-15T18:51:55.326Z,71.59
2019-03-15T18:54:59.779Z,72.05
2019-03-15T18:58:04.284Z,72.10
2019-03-15T19:01:08.725Z,71.87
2019-03-15T19:04:13.171Z,71.84
2019-03-15T19:07:17.954Z,71.75
2019-03-15T19:10:22.679Z,72.06
2019-03-15T19:13:27.453Z,71.87
2019-03-15T19:16:32.644Z,72.58
2019-03-15T19:19:37.383Z,72.25
2019-03-15T19:22:41.830Z,72.09
2019-03-15T19:25:46.271Z,72.10
2019-03-15T19:28:50.970Z,71.76
2019-03-15T19:31:55.410Z,71.65
2019-03-15T19:35:00.117Z,71.40
2019-03-15T19:38:04.953Z,71.51
2019-03-15T19:41:09.682Z,72.09
2019-03-15T19:44:14.120Z,72.07
2019-03-15T19:47:18.830Z,72.17
2019-03-15T19:50:23.660Z,72.00
2019-03-15T19:53:28.099Z,72.16
2019-03-15T19:56:32.543Z,72.04
2019-03-15T19:59:37.238Z,71.97
2019-03-15T20:02:41.972Z,72.21
2019-03-15T20:05:46.417Z,72.41
2019-03-15T20:08:50.868Z,72.68
2019-03-15T20:11:55.297Z,73.19
2019-03-15T20:15:00.266Z,73.93
2019-03-15T20:18:04.901Z,74.01
2019-03-15T20:21:09.645Z,74.57
2019-03-15T20:24:14.381Z,74.44
2019-03-15T20:27:18.816Z,74.52
2019-03-15T20:30:26.895Z,75.13
2019-03-15T20:33:31.556Z,75.68
2019-03-15T20:36:36.260Z,75.80
2019-03-15T20:39:40.713Z,76.14
2019-03-15T20:42:45.420Z,76.35
2019-03-15T20:45:49.869Z,76.91
2019-03-15T20:48:54.303Z,77.02
2019-03-15T20:51:58.778Z,76.54
2019-03-15T20:55:03.211Z,76.62
2019-03-15T20:58:07.657Z,76.77
2019-03-15T21:01:12.467Z,76.76
2019-03-15T21:04:16.957Z,76.83
2019-03-15T21:07:21.402Z,77.41
2019-03-15T21:10:26.149Z,77.80
2019-03-15T21:13:33.761Z,77.11
2019-03-15T21:16:37.351Z,77.14
2019-03-15T21:19:41.864Z,77.13
2019-03-15T21:22:46.298Z,76.85
2019-03-15T21:25:51.044Z,76.30
2019-03-15T21:28:55.767Z,76.16
2019-03-15T21:32:00.265Z,76.05
2019-03-15T21:35:07.731Z,75.92
2019-03-15T21:38:12.648Z,75.74
2019-03-15T21:41:17.354Z,76.05
2019-03-15T21:44:22.081Z,75.76
2019-03-15T21:47:26.536Z,76.48
2019-03-15T21:50:31.232Z,75.86
2019-03-15T21:53:35.677Z,75.47
2019-03-15T21:56:40.126Z,75.41
2019-03-15T21:59:44.814Z,75.51
2019-03-15T22:02:49.260Z,76.16
2019-03-15T22:05:53.699Z,76.21
2019-03-15T22:08:58.391Z,76.39
2019-03-15T22:12:02.835Z,76.47
2019-03-15T22:15:10.337Z,76.48
2019-03-15T22:18:14.788Z,76.72
2019-03-15T22:21:19.570Z,76.49
2019-03-15T22:24:24.017Z,76.92
2019-03-15T22:27:28.501Z,76.63
2019-03-15T22:30:33.242Z,76.56
2019-03-15T22:33:38.509Z,76.58
2019-03-15T22:36:43.219Z,76.37
2019-03-15T22:39:47.667Z,76.50
2019-03-15T22:42:52.473Z,76.69
2019-03-15T22:45:57.205Z,76.08
2019-03-15T22:49:01.939Z,76.37
2019-03-15T22:52:06.400Z,76.51
2019-03-15T22:55:11.878Z,77.27
2019-03-15T22:58:16.641Z,77.68
2019-03-15T23:01:30.058Z,77.72
2019-03-15T23:04:27.643Z,78.22
2019-03-15T23:07:32.369Z,78.32
2019-03-15T23:10:36.806Z,78.18
2019-03-15T23:13:41.524Z,77.82
2019-03-15T23:16:46.358Z,78.01
2019-03-15T23:19:50.804Z,77.93
2019-03-15T23:22:55.253Z,78.48
2019-03-15T23:25:59.937Z,78.02
2019-03-15T23:29:04.381Z,78.19
2019-03-15T23:32:09.094Z,78.29
2019-03-15T23:35:13.831Z,78.31
2019-03-15T23:38:18.552Z,78.31
2019-03-15T23:41:22.988Z,78.33
2019-03-15T23:44:27.436Z,78.26
2019-03-15T23:47:32.231Z,77.16
2019-03-15T23:50:36.671Z,77.45
2019-03-15T23:53:41.119Z,77.39
2019-03-15T23:56:45.552Z,77.46
2019-03-15T23:59:50.004Z,77.38
